^^
Datos históricos de la estación: Murcia-Puente Tocinos
 
Diario Informe para Enero 27, 2021 Unidades:  Métrico    Ingés   Ambas
Diario Semanal Mensual Anual
  Actual: Máxima: Mínima: Promedio:
Temperatura: 22.4 °C 23.3 °C 13.6 °C 17.7 °C
Punto de rocio: 11.4 °C 13 °C 9.9 °C 11.4 °C
Humedad: 50% 82% 49.2% 68%
Velocidad viento: 18.8km/h 22.5km/h 0km/h 10.4km/h
Racha viento: 27.4km/h 41.8km/h - -
VientoNO - - SO
Presión: 1021.0 hPa 1023.1 hPa 1020.8 hPa -
Precipitación: 0.0 mm      
 
 
Tabla de datos para Enero 27, 2021
Hora Temperatura Punto de rocio Presión Viento Velocidad viento Racha viento Humedad Intensidad lluvia(por hora) Nubes
00:04 15.4 °C 11.6 °C 1022.7 hPa SO 8.7 km/h 14.5 km/h 78% 0.0 mm
00:09 15.4 °C 11.5 °C 1022.8 hPa SO 7.3 km/h 12.9 km/h 77.4% 0.0 mm
00:14 15.4 °C 11.4 °C 1022.8 hPa SO 6.9 km/h 11.3 km/h 77% 0.0 mm
00:19 15.4 °C 11.4 °C 1022.8 hPa SO 6.6 km/h 10 km/h 77% 0.0 mm
00:24 15.4 °C 11.5 °C 1022.8 hPa SO 6.5 km/h 13 km/h 77.9% 0.0 mm
00:29 15.3 °C 11.5 °C 1022.5 hPa OSO 6.8 km/h 12.9 km/h 78% 0.0 mm
00:34 15.3 °C 11.5 °C 1022.5 hPa Oeste 6.9 km/h 9.5 km/h 78% 0.0 mm
00:39 15.2 °C 11.5 °C 1022.5 hPa OSO 6.6 km/h 9.7 km/h 78.6% 0.0 mm
00:44 15.1 °C 11.5 °C 1022.5 hPa SO 6.5 km/h 9.7 km/h 79% 0.0 mm
00:49 15.1 °C 11.5 °C 1022.5 hPa Sur 3.7 km/h 3.9 km/h 79% 0.0 mm
00:54 15 °C 11.5 °C 1022.5 hPa SE 2.9 km/h 5.6 km/h 79.4% 0.0 mm
00:59 14.9 °C 11.3 °C 1022.4 hPa ESE 2.9 km/h 7.4 km/h 79% 0.0 mm
01:04 14.8 °C 11.1 °C 1022.4 hPa ESE 2.9 km/h 10 km/h 78.6% 0.0 mm
01:09 14.6 °C 11 °C 1022.5 hPa ESE 4.5 km/h 9.7 km/h 79% 0.0 mm
01:14 14.4 °C 10.9 °C 1022.5 hPa SE 5 km/h 9.7 km/h 79.8% 0.0 mm
01:19 14.3 °C 10.9 °C 1022.5 hPa SSE 5.6 km/h 8.4 km/h 80% 0.0 mm
01:24 14.3 °C 11 °C 1022.5 hPa SE 5.8 km/h 8.4 km/h 80.9% 0.0 mm
01:29 14.2 °C 10.8 °C 1022.4 hPa ESE 5.8 km/h 10.3 km/h 80.1% 0.0 mm
01:34 14 °C 10.8 °C 1022.4 hPa SE 5.8 km/h 11.9 km/h 81% 0.0 mm
01:39 14 °C 10.8 °C 1022.6 hPa SE 7.8 km/h 11.9 km/h 81% 0.0 mm
01:44 14 °C 10.8 °C 1022.6 hPa SE 8.4 km/h 11.3 km/h 81% 0.0 mm
01:49 14.1 °C 10.9 °C 1022.6 hPa SE 7.7 km/h 11.3 km/h 81% 0.0 mm
01:54 14.1 °C 10.9 °C 1022.6 hPa SE 7.6 km/h 11.9 km/h 81% 0.0 mm
01:59 14.1 °C 10.9 °C 1022.2 hPa SE 8.2 km/h 11.3 km/h 81% 0.0 mm
02:04 14.1 °C 10.8 °C 1022.2 hPa SSE 8.4 km/h 11.3 km/h 81% 0.0 mm
02:09 14 °C 10.8 °C 1022.2 hPa SSE 7.8 km/h 11.9 km/h 81% 0.0 mm
02:14 14 °C 10.8 °C 1022.2 hPa SSE 7.6 km/h 11.3 km/h 81% 0.0 mm
02:19 14.1 °C 10.9 °C 1022.2 hPa SSE 8.2 km/h 13 km/h 81% 0.0 mm
02:24 14.1 °C 10.9 °C 1022.2 hPa SSE 8.4 km/h 13.7 km/h 81% 0.0 mm
02:29 14.2 °C 11 °C 1022.2 hPa Sur 9.2 km/h 14.5 km/h 80.9% 0.0 mm
02:34 14.2 °C 10.8 °C 1022.2 hPa SSO 9.5 km/h 14.5 km/h 80% 0.0 mm
02:39 14.3 °C 11 °C 1022.4 hPa SSO 8.7 km/h 11.9 km/h 80.4% 0.0 mm
02:44 14.3 °C 11.1 °C 1022.4 hPa SSO 8.4 km/h 13.7 km/h 81% 0.0 mm
02:49 14.3 °C 11.1 °C 1022.4 hPa SO 8.6 km/h 14.5 km/h 81% 0.0 mm
02:54 14.3 °C 11.1 °C 1022.4 hPa SSO 8.7 km/h 13 km/h 81% 0.0 mm
02:59 14.3 °C 11.1 °C 1022.3 hPa SSO 7.8 km/h 12.9 km/h 81% 0.0 mm
03:04 14.3 °C 11.1 °C 1022.3 hPa Sur 7.6 km/h 9.7 km/h 81% 0.0 mm
03:09 14.3 °C 11 °C 1022.3 hPa ESE 5.7 km/h 13 km/h 80.7% 0.0 mm
03:14 14 °C 10.7 °C 1022.1 hPa ESE 5 km/h 13 km/h 80.2% 0.0 mm
03:19 13.8 °C 10.7 °C 1022.1 hPa SE 6.9 km/h 13 km/h 81.7% 0.0 mm
03:24 13.8 °C 10.8 °C 1022.1 hPa SSE 7.6 km/h 11.3 km/h 82% 0.0 mm
03:29 13.9 °C 10.8 °C 1022.0 hPa Sur 6.7 km/h 8.4 km/h 81.6% 0.0 mm
03:34 13.9 °C 10.7 °C 1022.0 hPa SSO 6.5 km/h 8 km/h 81% 0.0 mm
03:39 14 °C 10.8 °C 1022.2 hPa SSO 5.1 km/h 8 km/h 81% 0.0 mm
03:44 14.1 °C 10.9 °C 1022.2 hPa SSO 4.7 km/h 8 km/h 80.8% 0.0 mm
03:49 14.1 °C 10.7 °C 1022.2 hPa SSO 4 km/h 5.6 km/h 80% 0.0 mm
03:54 14.1 °C 10.7 °C 1022.2 hPa SSO 3.9 km/h 4.8 km/h 80% 0.0 mm
03:59 14.1 °C 10.7 °C 1022.1 hPa SSO 0.8 km/h 6.4 km/h 80% 0.0 mm
04:04 14.1 °C 10.9 °C 1022.1 hPa Calm   8 km/h 81% 0.0 mm
04:09 14.1 °C 10.9 °C 1022.1 hPa SO 3.6 km/h 8.4 km/h 81% 0.0 mm
04:14 14.1 °C 10.8 °C 1022.1 hPa SO 4.7 km/h 8 km/h 80.8% 0.0 mm
04:19 14.1 °C 10.7 °C 1022.1 hPa SO 4.7 km/h 8 km/h 80% 0.0 mm
04:24 14 °C 10.6 °C 1022.1 hPa SO 4.7 km/h 7.4 km/h 80% 0.0 mm
04:29 13.9 °C 10.5 °C 1021.8 hPa SO 3.3 km/h 8 km/h 80% 0.0 mm
04:34 13.7 °C 10.4 °C 1021.8 hPa SO 2.9 km/h 4.8 km/h 80.2% 0.0 mm
04:39 13.7 °C 10.5 °C 1021.8 hPa SO 2.4 km/h 5.8 km/h 81% 0.0 mm
04:44 13.6 °C 10.6 °C 1021.6 hPa SO 2.2 km/h 10 km/h 81.9% 0.0 mm
04:49 13.7 °C 10.6 °C 1021.6 hPa SSO 5 km/h 11.9 km/h 81.7% 0.0 mm
04:54 13.8 °C 10.6 °C 1021.6 hPa SSO 5.8 km/h 13 km/h 80.9% 0.0 mm
04:59 13.9 °C 10.5 °C 1021.6 hPa SSO 7.8 km/h 12.9 km/h 80% 0.0 mm
05:04 13.9 °C 10.4 °C 1021.6 hPa SSO 8.4 km/h 11.3 km/h 79.7% 0.0 mm
05:09 13.9 °C 10.3 °C 1021.6 hPa SO 6.8 km/h 9.7 km/h 79% 0.0 mm
05:14 13.9 °C 10.3 °C 1021.5 hPa SSO 6.5 km/h 11.1 km/h 79% 0.0 mm
05:19 13.9 °C 10.3 °C 1021.5 hPa SSO 6.8 km/h 11.3 km/h 79% 0.0 mm
05:24 14 °C 10.4 °C 1021.5 hPa Sur 6.9 km/h 11.3 km/h 79% 0.0 mm
05:29 13.9 °C 10.1 °C 1021.5 hPa SSE 6.6 km/h 9.7 km/h 78% 0.0 mm
05:34 13.8 °C 10.2 °C 1021.5 hPa SSO 6.5 km/h 9.5 km/h 78.8% 0.0 mm
05:39 13.7 °C 10.1 °C 1021.5 hPa SSO 6.4 km/h 11.9 km/h 79% 0.0 mm
05:44 13.7 °C 10.1 °C 1021.4 hPa SSO 6.5 km/h 11.3 km/h 79% 0.0 mm
05:49 13.8 °C 10.2 °C 1021.4 hPa SSO 7.9 km/h 15.6 km/h 79% 0.0 mm
05:54 13.9 °C 10.3 °C 1021.4 hPa SSO 8.4 km/h 16.1 km/h 78.8% 0.0 mm
05:59 13.9 °C 10.1 °C 1021.3 hPa SSO 10.5 km/h 14.8 km/h 78% 0.0 mm
06:04 13.9 °C 10.1 °C 1021.3 hPa SSO 11.1 km/h 14.5 km/h 78% 0.0 mm
06:09 13.9 °C 10.2 °C 1021.3 hPa SSO 9.3 km/h 17.2 km/h 78.6% 0.0 mm
06:14 14 °C 10.3 °C 1021.2 hPa SSO 8.7 km/h 17.7 km/h 78.1% 0.0 mm
06:19 14.2 °C 10.3 °C 1021.2 hPa SSO 9.3 km/h 16.1 km/h 77.5% 0.0 mm
06:24 14.2 °C 10.2 °C 1021.2 hPa SSO 9.5 km/h 14.5 km/h 77% 0.0 mm
06:29 14.3 °C 10.3 °C 1021.2 hPa Sur 9.5 km/h 14.5 km/h 77% 0.0 mm
06:34 14.2 °C 10.2 °C 1021.2 hPa Sur 9.5 km/h 14.5 km/h 77% 0.0 mm
06:39 14.2 °C 10.2 °C 1021.2 hPa SSO 9.5 km/h 14.8 km/h 77% 0.0 mm
06:44 14.2 °C 10.2 °C 1021.0 hPa SSO 9.5 km/h 14.5 km/h 77% 0.0 mm
06:49 14.3 °C 10.3 °C 1021.0 hPa SSO 8.9 km/h 14.8 km/h 77% 0.0 mm
06:54 14.3 °C 10.3 °C 1021.0 hPa SSO 8.7 km/h 14.8 km/h 77% 0.0 mm
06:59 14.4 °C 10.2 °C 1021.0 hPa SSO 9.7 km/h 15.6 km/h 76.2% 0.0 mm
07:04 14.4 °C 10.2 °C 1021.0 hPa SSO 10 km/h 16.1 km/h 76% 0.0 mm
07:09 14.4 °C 10.2 °C 1021.1 hPa SSO 9 km/h 14.8 km/h 76% 0.0 mm
07:14 14.4 °C 10.2 °C 1021.1 hPa SSO 8.7 km/h 14.5 km/h 76% 0.0 mm
07:19 14.4 °C 10.2 °C 1021.1 hPa SSO 8.7 km/h 16.7 km/h 76% 0.0 mm
07:24 14.4 °C 10.2 °C 1021.3 hPa SSO 8.7 km/h 16.1 km/h 76% 0.0 mm
07:29 14.4 °C 10.2 °C 1021.3 hPa SSO 9.7 km/h 15.6 km/h 76% 0.0 mm
07:34 14.4 °C 10.2 °C 1021.3 hPa SSO 10 km/h 16.1 km/h 76% 0.0 mm
07:39 14.6 °C 10.3 °C 1021.3 hPa SSO 9.6 km/h 16.7 km/h 75.7% 0.0 mm
07:44 14.6 °C 10.2 °C 1021.3 hPa SSO 9.5 km/h 16.1 km/h 75% 0.0 mm
07:49 14.6 °C 10.2 °C 1021.3 hPa SSO 9.9 km/h 12.2 km/h 75% 0.0 mm
07:54 14.6 °C 10.2 °C 1021.4 hPa SO 10 km/h 13 km/h 75% 0.0 mm
07:59 14.6 °C 10.2 °C 1021.4 hPa SSO 7.7 km/h 12.9 km/h 75% 0.0 mm
08:04 14.6 °C 10.2 °C 1021.4 hPa SE 6.9 km/h 8.4 km/h 75% 0.0 mm
08:09 14.4 °C 10.1 °C 1021.8 hPa Sur 4.6 km/h 8.4 km/h 75.3% 0.0 mm
08:14 14.4 °C 10.2 °C 1021.8 hPa SSO 3.9 km/h 13 km/h 76% 0.0 mm
08:19 14.4 °C 10.2 °C 1021.8 hPa SSO 6.2 km/h 13 km/h 76% 0.0 mm
08:24 14.4 °C 10.2 °C 1021.8 hPa SO 6.9 km/h 13 km/h 76% 0.0 mm
08:29 14.4 °C 10.3 °C 1021.8 hPa SSO 8.1 km/h 13.7 km/h 76% 0.0 mm
08:34 14.5 °C 10.4 °C 1021.8 hPa Sur 8.4 km/h 14.5 km/h 76.1% 0.0 mm
08:39 14.5 °C 10.3 °C 1022.0 hPa SE 8.4 km/h 11.3 km/h 76% 0.0 mm
08:44 14.2 °C 10 °C 1022.0 hPa SSE 8.4 km/h 13 km/h 76% 0.0 mm
08:49 13.8 °C 9.9 °C 1022.0 hPa SSE 8.6 km/h 13.7 km/h 77.5% 0.0 mm
08:54 13.6 °C 9.9 °C 1022.1 hPa SSE 8.7 km/h 14.8 km/h 78.7% 0.0 mm
08:59 13.6 °C 10 °C 1022.1 hPa SSE 9.4 km/h 14.5 km/h 79% 0.0 mm
09:04 13.8 °C 10.2 °C 1022.1 hPa Sur 9.5 km/h 13 km/h 79.2% 0.0 mm
09:09 14 °C 10.5 °C 1022.1 hPa Sur 9.5 km/h 13 km/h 79% 0.0 mm
09:14 14.3 °C 10.6 °C 1022.1 hPa SSO 9.5 km/h 12.9 km/h 78.1% 0.0 mm
09:19 14.7 °C 10.8 °C 1022.1 hPa SSO 8.7 km/h 11.3 km/h 77.6% 0.0 mm
09:24 15.1 °C 10.9 °C 1022.3 hPa Sur 8.4 km/h 11.3 km/h 76.4% 0.0 mm
09:29 15.4 °C 11.1 °C 1022.3 hPa SSO 6.9 km/h 9.7 km/h 75.6% 0.0 mm
09:34 15.8 °C 11.2 °C 1022.3 hPa Sur 6.5 km/h 11.1 km/h 74.3% 0.0 mm
09:39 16.2 °C 11.4 °C 1022.4 hPa Sur 6.8 km/h 14.8 km/h 73.3% 0.0 mm
09:44 16.5 °C 11.5 °C 1022.4 hPa Sur 6.9 km/h 14.5 km/h 72.1% 0.0 mm
09:49 16.8 °C 11.6 °C 1022.4 hPa SSE 8.8 km/h 13 km/h 71.5% 0.0 mm
09:54 17.3 °C 11.8 °C 1022.4 hPa SSE 9.5 km/h 13.7 km/h 70.2% 0.0 mm
09:59 17.8 °C 11.9 °C 1022.4 hPa SSE 8.6 km/h 14.5 km/h 68.5% 0.0 mm
10:04 18.2 °C 12 °C 1022.4 hPa SSE 8.4 km/h 16.7 km/h 67.3% 0.0 mm
10:09 18.5 °C 12 °C 1022.4 hPa Sur 9.7 km/h 16.1 km/h 65.9% 0.0 mm
10:14 18.8 °C 12 °C 1022.4 hPa Sur 10 km/h 15.6 km/h 65% 0.0 mm
10:19 19 °C 12.1 °C 1022.4 hPa Sur 9.6 km/h 20.4 km/h 64.2% 0.0 mm
10:24 19.2 °C 12.1 °C 1022.6 hPa SSO 9.5 km/h 20.9 km/h 63.6% 0.0 mm
10:29 19.3 °C 12.1 °C 1022.6 hPa SSO 8.7 km/h 15.6 km/h 63% 0.0 mm
10:34 19.3 °C 12.1 °C 1022.6 hPa SSO 8.4 km/h 16.1 km/h 63% 0.0 mm
10:39 19.4 °C 12.1 °C 1022.7 hPa SSO 7.8 km/h 18.3 km/h 62.9% 0.0 mm
10:44 19.4 °C 12 °C 1022.7 hPa SSO 7.6 km/h 19.3 km/h 62.4% 0.0 mm
10:49 19.4 °C 12 °C 1022.7 hPa SSO 9.4 km/h 17.7 km/h 62.2% 0.0 mm
10:54 19.4 °C 12 °C 1022.7 hPa SO 10 km/h 18 km/h 62.2% 0.0 mm
10:59 19.6 °C 12.3 °C 1022.7 hPa SO 10.2 km/h 17.7 km/h 62.7% 0.0 mm
11:04 19.6 °C 12.3 °C 1022.7 hPa SO 10.3 km/h 19.8 km/h 62.6% 0.0 mm
11:09 19.7 °C 12.4 °C 1022.9 hPa SO 10.3 km/h 22.5 km/h 62.5% 0.0 mm
11:14 19.8 °C 12.4 °C 1022.9 hPa SO 10.3 km/h 22.5 km/h 62% 0.0 mm
11:19 20 °C 12.5 °C 1022.9 hPa OSO 10.9 km/h 22.5 km/h 62% 0.0 mm
11:24 20.2 °C 12.5 °C 1023.1 hPa SO 11.1 km/h 16.7 km/h 61.2% 0.0 mm
11:29 20.3 °C 12.5 °C 1023.1 hPa OSO 9.2 km/h 18.5 km/h 61% 0.0 mm
11:34 20.4 °C 12.5 °C 1023.1 hPa Oeste 8.7 km/h 27 km/h 60.6% 0.0 mm
11:39 20.6 °C 12.5 °C 1023.1 hPa OSO 10.6 km/h 27.8 km/h 60% 0.0 mm
11:44 20.7 °C 12.6 °C 1023.1 hPa OSO 11.1 km/h 20.4 km/h 59.7% 0.0 mm
11:49 20.8 °C 12.5 °C 1023.1 hPa SO 11.1 km/h 22.2 km/h 59% 0.0 mm
11:54 20.8 °C 12.5 °C 1023.1 hPa SO 11.1 km/h 24.1 km/h 59% 0.0 mm
11:59 20.9 °C 12.6 °C 1022.8 hPa OSO 11.9 km/h 24.1 km/h 59% 0.0 mm
12:04 21 °C 12.5 °C 1022.8 hPa OSO 12.2 km/h 20.9 km/h 58.2% 0.0 mm
12:09 21.1 °C 12.5 °C 1022.8 hPa Oeste 12 km/h 19.8 km/h 58% 0.0 mm
12:14 21.1 °C 12.5 °C 1022.8 hPa SO 11.9 km/h 19.3 km/h 58% 0.0 mm
12:15 21.2 °C 12.6 °C 1022.8 hPa SSO 11.8 km/h 19.3 km/h 58% 0.0 mm
12:24 21.3 °C 12.5 °C 1022.8 hPa SSO 11.1 km/h 19.3 km/h 57.1% 0.0 mm
12:29 21.6 °C 12.5 °C 1022.6 hPa SSO 9.3 km/h 16.1 km/h 56.5% 0.0 mm
12:34 21.7 °C 12.5 °C 1022.6 hPa SSO 8.7 km/h 16.7 km/h 56% 0.0 mm
12:39 21.8 °C 12.6 °C 1022.6 hPa SSO 8.7 km/h 16.1 km/h 55.9% 0.0 mm
12:44 21.9 °C 12.6 °C 1022.4 hPa SSO 8.7 km/h 13.7 km/h 55.6% 0.0 mm
12:49 22.1 °C 12.6 °C 1022.4 hPa OSO 7.3 km/h 19.8 km/h 55% 0.0 mm
12:54 22.3 °C 12.7 °C 1022.4 hPa OSO 6.9 km/h 27.8 km/h 54.8% 0.0 mm
12:59 22.4 °C 12.6 °C 1022.2 hPa Oeste 11.2 km/h 27.4 km/h 54% 0.0 mm
13:04 22.4 °C 12.7 °C 1022.2 hPa OSO 12.2 km/h 29.8 km/h 54% 0.0 mm
13:09 22.6 °C 12.7 °C 1022.2 hPa OSO 15.3 km/h 30.6 km/h 53.6% 0.0 mm
13:14 22.7 °C 12.6 °C 1022.1 hPa OSO 16.1 km/h 30.6 km/h 53% 0.0 mm
13:19 22.8 °C 12.7 °C 1022.1 hPa Oeste 14.5 km/h 22.2 km/h 53% 0.0 mm
13:24 22.9 °C 12.8 °C 1022.1 hPa OSO 14 km/h 22.5 km/h 53% 0.0 mm
13:29 23 °C 12.9 °C 1021.9 hPa OSO 12.6 km/h 25.6 km/h 53% 0.0 mm
13:34 23.1 °C 12.8 °C 1021.9 hPa OSO 12.2 km/h 27 km/h 52.5% 0.0 mm
13:39 23.2 °C 12.8 °C 1021.9 hPa OSO 11.4 km/h 27.4 km/h 52% 0.0 mm
13:44 23.2 °C 12.8 °C 1021.7 hPa Oeste 11.1 km/h 19.3 km/h 52% 0.0 mm
13:49 23.1 °C 12.9 °C 1021.7 hPa Oeste 11.1 km/h 29.6 km/h 52.9% 0.0 mm
13:54 22.9 °C 12.8 °C 1021.7 hPa Oeste 11.1 km/h 29 km/h 53% 0.0 mm
13:59 22.9 °C 12.8 °C 1021.5 hPa Oeste 14.5 km/h 26.2 km/h 53% 0.0 mm
14:04 22.8 °C 12.7 °C 1021.5 hPa Oeste 15.6 km/h 31.5 km/h 53% 0.0 mm
14:09 22.8 °C 12.9 °C 1021.5 hPa Oeste 16.9 km/h 32.2 km/h 53.5% 0.0 mm
14:14 22.9 °C 12.9 °C 1021.4 hPa ONO 17.2 km/h 27.8 km/h 53.4% 0.0 mm
14:19 23 °C 12.9 °C 1021.4 hPa ONO 14.8 km/h 29.8 km/h 53% 0.0 mm
14:24 23.1 °C 13 °C 1021.4 hPa ONO 14 km/h 31.7 km/h 53% 0.0 mm
14:29 23.2 °C 13 °C 1021.3 hPa ONO 17.2 km/h 33.3 km/h 52.8% 0.0 mm
14:34 23.3 °C 12.9 °C 1021.3 hPa ONO 18 km/h 33.8 km/h 52% 0.0 mm
14:39 23.2 °C 12.8 °C 1021.3 hPa Oeste 18.8 km/h 33.8 km/h 52% 0.0 mm
14:44 23.2 °C 12.8 °C 1021.3 hPa Oeste 19 km/h 29.6 km/h 52% 0.0 mm
14:49 23.2 °C 12.7 °C 1021.3 hPa ONO 16.7 km/h 33.5 km/h 51.6% 0.0 mm
14:54 23.3 °C 12.6 °C 1021.3 hPa ONO 16.1 km/h 33.8 km/h 51% 0.0 mm
14:59 23.3 °C 12.4 °C 1021.1 hPa Oeste 17.8 km/h 33.8 km/h 50.1% 0.0 mm
15:04 23.3 °C 12.3 °C 1021.1 hPa Oeste 18.4 km/h 32.2 km/h 50% 0.0 mm
15:09 23.3 °C 12.3 °C 1021.3 hPa ONO 16.2 km/h 30.6 km/h 50% 0.0 mm
15:14 23.3 °C 12.3 °C 1021.3 hPa ONO 15.6 km/h 25.9 km/h 50% 0.0 mm
15:19 23.3 °C 12.3 °C 1021.3 hPa ONO 16 km/h 35.9 km/h 50% 0.0 mm
15:24 23.3 °C 12 °C 1021.3 hPa ONO 16.1 km/h 35.4 km/h 49.2% 0.0 mm
15:29 23.2 °C 11.9 °C 1021.0 hPa ONO 18.3 km/h 41.2 km/h 49.2% 0.0 mm
15:34 23 °C 11.9 °C 1021.0 hPa ONO 19 km/h 41.8 km/h 49.8% 0.0 mm
15:39 22.9 °C 11.9 °C 1021.0 hPa Oeste 21.4 km/h 38.6 km/h 50% 0.0 mm
15:44 22.9 °C 11.9 °C 1021.0 hPa ONO 22.1 km/h 37 km/h 50% 0.0 mm
15:49 22.9 °C 12 °C 1021.0 hPa ONO 22.1 km/h 39.6 km/h 50% 0.0 mm
15:54 23 °C 12 °C 1021.1 hPa ONO 22.1 km/h 40.2 km/h 50% 0.0 mm
15:59 23 °C 12 °C 1021.1 hPa ONO 20.4 km/h 35.4 km/h 50% 0.0 mm
16:04 23 °C 12 °C 1021.1 hPa ONO 19.8 km/h 35.9 km/h 50% 0.0 mm
16:09 22.9 °C 11.9 °C 1021.2 hPa ONO 21.3 km/h 35.9 km/h 50% 0.0 mm
16:14 23 °C 12 °C 1021.2 hPa ONO 21.7 km/h 35.4 km/h 50% 0.0 mm
16:19 23 °C 12 °C 1021.2 hPa ONO 19 km/h 34.3 km/h 49.9% 0.0 mm
16:24 22.9 °C 11.9 °C 1021.2 hPa NO 18 km/h 33.8 km/h 50% 0.0 mm
16:29 22.9 °C 11.9 °C 1021.1 hPa ONO 16.8 km/h 33.8 km/h 50% 0.0 mm
16:34 22.9 °C 11.9 °C 1021.1 hPa ONO 16.4 km/h 33.8 km/h 50% 0.0 mm
16:39 22.9 °C 12 °C 1021.1 hPa ONO 17.9 km/h 30.6 km/h 50% 0.0 mm
16:44 23 °C 12 °C 1021.1 hPa ONO 18.4 km/h 33.5 km/h 50% 0.0 mm
16:49 22.9 °C 11.9 °C 1021.1 hPa ONO 19.4 km/h 33.8 km/h 50% 0.0 mm
16:54 22.9 °C 11.9 °C 1021.1 hPa ONO 19.8 km/h 33.3 km/h 50% 0.0 mm
16:59 22.9 °C 11.9 °C 1021.0 hPa ONO 19.2 km/h 33.8 km/h 50% 0.0 mm
17:04 22.9 °C 11.9 °C 1021.0 hPa ONO 19 km/h 33.8 km/h 50% 0.0 mm
17:09 22.8 °C 11.9 °C 1021.0 hPa ONO 19 km/h 34.3 km/h 50% 0.0 mm
17:14 22.8 °C 11.8 °C 1020.8 hPa ONO 19 km/h 35.2 km/h 50% 0.0 mm
17:19 22.7 °C 11.7 °C 1020.8 hPa ONO 21.8 km/h 35.4 km/h 50% 0.0 mm
17:24 22.7 °C 11.7 °C 1020.8 hPa ONO 22.5 km/h 38.9 km/h 50% 0.0 mm
17:29 22.6 °C 11.7 °C 1020.8 hPa ONO 21.3 km/h 38.6 km/h 50% 0.0 mm
17:34 22.6 °C 11.6 °C 1020.8 hPa ONO 20.9 km/h 33.8 km/h 50% 0.0 mm
17:39 22.5 °C 11.5 °C 1021.0 hPa ONO 19 km/h 32.2 km/h 50% 0.0 mm
17:44 22.4 °C 11.4 °C 1021.0 hPa ONO 18.4 km/h 29 km/h 50% 0.0 mm
17:45 22.4 °C 11.4 °C 1021.0 hPa NO 18.8 km/h 27.4 km/h 50% 0.0 mm
Murcia-Puente Tocinos, España
Compliments of Weather Underground - 2.5 mb

La estación de MeteoMurcia.com, publica sus datos en los siguientes proyectos:

Weather Underground PWS IMURCIAP2 Meteoclimatic www.awekas.at

W3Counter
Web Analytics